createdAt,value
2017-03-28T00:00:33.622Z,95.69
2017-03-28T00:01:34.162Z,94.64
2017-03-28T00:02:34.684Z,94.15
2017-03-28T00:03:35.222Z,93.75
2017-03-28T00:04:35.899Z,93.51
2017-03-28T00:05:36.284Z,94.12
2017-03-28T00:06:36.819Z,94.50
2017-03-28T00:07:37.355Z,93.75
2017-03-28T00:08:37.888Z,92.57
2017-03-28T00:09:38.420Z,92.05
2017-03-28T00:10:38.958Z,91.44
2017-03-28T00:11:39.484Z,91.03
2017-03-28T00:12:40.018Z,90.61
2017-03-28T00:13:40.556Z,90.61
2017-03-28T00:14:41.092Z,91.65
2017-03-28T00:15:41.628Z,92.43
2017-03-28T00:16:42.171Z,92.43
2017-03-28T00:17:42.709Z,92.24
2017-03-28T00:18:43.244Z,92.49
2017-03-28T00:19:43.767Z,91.97
2017-03-28T00:20:44.292Z,92.35
2017-03-28T00:21:44.830Z,92.40
2017-03-28T00:22:45.357Z,91.92
2017-03-28T00:23:45.900Z,92.43
2017-03-28T00:24:46.573Z,92.08
2017-03-28T00:25:46.955Z,91.97
2017-03-28T00:26:47.487Z,91.95
2017-03-28T00:27:48.020Z,92.65
2017-03-28T00:28:48.549Z,93.48
2017-03-28T00:29:49.085Z,93.51
2017-03-28T00:30:49.618Z,94.83
2017-03-28T00:31:50.147Z,95.61
2017-03-28T00:32:50.679Z,96.07
2017-03-28T00:33:51.210Z,96.02
2017-03-28T00:34:51.739Z,96.15
2017-03-28T00:35:52.273Z,96.72
2017-03-28T00:36:52.809Z,96.66
2017-03-28T00:37:53.342Z,96.55
2017-03-28T00:38:53.880Z,96.55
2017-03-28T00:39:54.404Z,96.28
2017-03-28T00:40:54.938Z,96.20
2017-03-28T00:41:55.474Z,96.47
2017-03-28T00:42:56.009Z,96.50
2017-03-28T00:43:56.565Z,96.09
2017-03-28T00:44:57.074Z,95.80
2017-03-28T00:45:57.605Z,95.47
2017-03-28T00:46:58.138Z,95.50
2017-03-28T00:47:58.672Z,95.50
2017-03-28T00:48:59.208Z,95.80
2017-03-28T00:49:59.740Z,96.42
2017-03-28T00:51:00.265Z,96.58
2017-03-28T00:52:00.800Z,96.66
2017-03-28T00:53:01.334Z,96.64
2017-03-28T00:54:01.864Z,96.31
2017-03-28T00:55:02.431Z,96.55
2017-03-28T00:56:02.937Z,96.88
2017-03-28T00:57:03.475Z,97.07
2017-03-28T00:58:04.006Z,97.04
2017-03-28T00:59:04.540Z,97.10
2017-03-28T01:00:05.076Z,97.15
2017-03-28T01:01:05.610Z,97.31
2017-03-28T01:02:06.143Z,97.31
2017-03-28T01:03:06.828Z,97.02
2017-03-28T01:04:07.210Z,97.18
2017-03-28T01:05:07.745Z,97.18
2017-03-28T01:06:08.274Z,97.02
2017-03-28T01:07:08.959Z,96.91
2017-03-28T01:08:09.339Z,97.12
2017-03-28T01:09:09.871Z,97.31
2017-03-28T01:10:10.402Z,97.47
2017-03-28T01:11:10.933Z,97.28
2017-03-28T01:12:11.475Z,96.88
2017-03-28T01:13:12.152Z,96.61
2017-03-28T01:14:12.535Z,96.31
2017-03-28T01:15:13.069Z,96.13
2017-03-28T01:16:13.615Z,96.09
2017-03-28T01:17:14.135Z,96.26
2017-03-28T01:18:14.667Z,95.91
2017-03-28T01:19:15.222Z,95.61
2017-03-28T01:20:15.733Z,96.09
2017-03-28T01:21:16.263Z,96.74
2017-03-28T01:22:16.801Z,96.91
2017-03-28T01:23:17.326Z,96.69
2017-03-28T01:24:17.861Z,96.91
2017-03-28T01:25:18.389Z,97.47
2017-03-28T01:26:18.929Z,97.50
2017-03-28T01:27:19.456Z,97.47
2017-03-28T01:28:19.994Z,97.55
2017-03-28T01:29:20.526Z,97.58
2017-03-28T01:30:21.055Z,97.72
2017-03-28T01:31:21.591Z,97.88
2017-03-28T01:32:22.122Z,98.02
2017-03-28T01:33:22.655Z,98.15
2017-03-28T01:34:23.190Z,98.26
2017-03-28T01:35:23.873Z,98.40
2017-03-28T01:36:24.258Z,98.53
2017-03-28T01:37:24.795Z,98.66
2017-03-28T01:38:25.335Z,98.69
2017-03-28T01:39:25.876Z,98.66
2017-03-28T01:40:26.405Z,98.55
2017-03-28T01:41:26.932Z,98.50
2017-03-28T01:42:27.467Z,98.42
2017-03-28T01:43:27.997Z,98.50
2017-03-28T01:44:28.532Z,98.50
2017-03-28T01:45:29.064Z,98.48
2017-03-28T01:46:29.596Z,98.40
2017-03-28T01:47:30.127Z,98.29
2017-03-28T01:48:30.659Z,98.40
2017-03-28T01:49:31.341Z,98.55
2017-03-28T01:50:31.719Z,98.83
2017-03-28T01:51:32.264Z,98.88
2017-03-28T01:52:32.946Z,98.94
2017-03-28T01:53:33.319Z,99.13
2017-03-28T01:54:33.853Z,99.32
2017-03-28T01:55:34.387Z,99.29
2017-03-28T01:56:34.922Z,99.45
2017-03-28T01:57:35.450Z,99.34
2017-03-28T01:58:35.987Z,99.29
2017-03-28T01:59:36.520Z,99.48
2017-03-28T02:00:37.353Z,99.37
2017-03-28T02:01:37.586Z,99.10
2017-03-28T02:02:38.117Z,98.96
2017-03-28T02:03:38.804Z,98.53
2017-03-28T02:04:39.186Z,97.88
2017-03-28T02:05:39.866Z,96.69
2017-03-28T02:06:40.247Z,95.88
2017-03-28T02:07:40.785Z,95.58
2017-03-28T02:08:41.315Z,95.45
2017-03-28T02:09:41.841Z,95.18
2017-03-28T02:10:42.371Z,94.59
2017-03-28T02:11:42.905Z,94.21
2017-03-28T02:12:43.441Z,93.48
2017-03-28T02:13:43.985Z,93.05
2017-03-28T02:14:44.507Z,92.86
2017-03-28T02:15:45.038Z,92.91
2017-03-28T02:16:45.571Z,93.35
2017-03-28T02:17:46.105Z,92.91
2017-03-28T02:18:46.641Z,92.54
2017-03-28T02:19:47.177Z,91.97
2017-03-28T02:20:47.715Z,91.76
2017-03-28T02:21:48.247Z,91.30
2017-03-28T02:22:48.785Z,91.01
2017-03-28T02:23:49.321Z,90.42
2017-03-28T02:24:49.992Z,90.34
2017-03-28T02:25:50.390Z,90.71
2017-03-28T02:26:50.908Z,90.93
2017-03-28T02:27:51.446Z,90.80
2017-03-28T02:28:51.980Z,90.61
2017-03-28T02:29:52.660Z,90.28
2017-03-28T02:30:53.039Z,90.34
2017-03-28T02:31:53.571Z,90.31
2017-03-28T02:32:54.107Z,90.85
2017-03-28T02:33:54.631Z,90.88
2017-03-28T02:34:55.167Z,90.77
2017-03-28T02:35:55.705Z,89.70
2017-03-28T02:36:56.231Z,89.14
2017-03-28T02:37:56.763Z,88.41
2017-03-28T02:38:57.299Z,88.68
2017-03-28T02:39:57.838Z,88.87
2017-03-28T02:40:58.362Z,89.56
2017-03-28T02:41:58.903Z,89.62
2017-03-28T02:42:59.428Z,89.59
2017-03-28T02:43:59.955Z,89.40
2017-03-28T02:45:00.492Z,89.59
2017-03-28T02:46:01.026Z,90.07
2017-03-28T02:47:01.558Z,90.45
2017-03-28T02:48:02.091Z,90.26
2017-03-28T02:49:02.620Z,90.98
2017-03-28T02:50:03.150Z,91.92
2017-03-28T02:51:03.682Z,92.68
2017-03-28T02:52:04.213Z,93.26
2017-03-28T02:53:04.747Z,94.40
2017-03-28T02:54:05.283Z,94.53
2017-03-28T02:55:05.814Z,95.75
2017-03-28T02:56:06.350Z,96.07
2017-03-28T02:57:06.877Z,96.28
2017-03-28T02:58:07.560Z,96.47
2017-03-28T02:59:07.949Z,96.28
2017-03-28T03:00:08.478Z,96.02
2017-03-28T03:01:09.014Z,95.72
2017-03-28T03:02:09.550Z,95.72
2017-03-28T03:03:10.087Z,95.53
2017-03-28T03:04:10.620Z,95.64
2017-03-28T03:05:11.304Z,96.07
2017-03-28T03:06:11.685Z,96.69
2017-03-28T03:07:12.219Z,96.31
2017-03-28T03:08:12.756Z,95.77
2017-03-28T03:09:13.290Z,95.34
2017-03-28T03:10:13.820Z,94.86
2017-03-28T03:11:14.352Z,94.53
2017-03-28T03:12:14.884Z,94.42
2017-03-28T03:13:15.414Z,94.67
2017-03-28T03:14:16.097Z,94.61
2017-03-28T03:15:16.478Z,94.83
2017-03-28T03:16:17.018Z,94.77
2017-03-28T03:17:17.539Z,94.99
2017-03-28T03:18:18.075Z,95.42
2017-03-28T03:19:18.604Z,95.37
2017-03-28T03:20:19.138Z,95.47
2017-03-28T03:21:19.676Z,95.34
2017-03-28T03:22:20.206Z,95.20
2017-03-28T03:23:20.737Z,94.91
2017-03-28T03:24:21.276Z,95.15
2017-03-28T03:25:21.798Z,95.31
2017-03-28T03:26:22.326Z,95.10
2017-03-28T03:27:22.861Z,94.83
2017-03-28T03:28:23.402Z,94.40
2017-03-28T03:29:23.932Z,94.42
2017-03-28T03:30:24.463Z,94.96
2017-03-28T03:31:24.995Z,95.12
2017-03-28T03:32:25.537Z,95.15
2017-03-28T03:33:26.059Z,95.50
2017-03-28T03:34:26.594Z,96.02
2017-03-28T03:35:27.123Z,96.45
2017-03-28T03:36:27.652Z,96.66
2017-03-28T03:37:28.188Z,96.64
2017-03-28T03:38:28.865Z,96.58
2017-03-28T03:39:29.251Z,96.66
2017-03-28T03:40:29.783Z,96.47
2017-03-28T03:41:30.320Z,96.39
2017-03-28T03:42:30.860Z,96.13
2017-03-28T03:43:31.394Z,95.80
2017-03-28T03:44:31.930Z,95.61
2017-03-28T03:45:32.467Z,95.58
2017-03-28T03:46:32.995Z,95.53
2017-03-28T03:47:33.521Z,95.64
2017-03-28T03:48:34.056Z,95.69
2017-03-28T03:49:34.590Z,95.80
2017-03-28T03:50:35.132Z,95.98
2017-03-28T03:51:35.653Z,96.45
2017-03-28T03:52:36.188Z,96.72
2017-03-28T03:53:36.722Z,96.88
2017-03-28T03:54:37.258Z,96.83
2017-03-28T03:55:37.789Z,96.66
2017-03-28T03:56:38.320Z,96.45
2017-03-28T03:57:38.851Z,96.61
2017-03-28T03:58:39.534Z,96.72
2017-03-28T03:59:39.919Z,97.31
2017-03-28T04:00:40.458Z,97.66
2017-03-28T04:01:40.982Z,98.10
2017-03-28T04:02:41.514Z,98.18
2017-03-28T04:03:42.048Z,98.23
2017-03-28T04:04:42.595Z,98.26
2017-03-28T04:05:43.132Z,98.48
2017-03-28T04:06:43.664Z,98.61
2017-03-28T04:07:44.200Z,98.53
2017-03-28T04:08:44.728Z,98.91
2017-03-28T04:09:45.262Z,98.83
2017-03-28T04:10:45.797Z,98.72
2017-03-28T04:11:46.327Z,98.72
2017-03-28T04:12:46.865Z,98.59
2017-03-28T04:13:47.395Z,98.50
2017-03-28T04:14:47.925Z,98.31
2017-03-28T04:15:48.755Z,98.12
2017-03-28T04:16:48.987Z,98.02
2017-03-28T04:17:49.525Z,97.74
2017-03-28T04:18:50.053Z,97.50
2017-03-28T04:19:50.606Z,97.31
2017-03-28T04:20:51.118Z,97.26
2017-03-28T04:21:51.651Z,97.23
2017-03-28T04:22:52.197Z,97.34
2017-03-28T04:23:52.721Z,97.53
2017-03-28T04:24:53.277Z,97.83
2017-03-28T04:25:53.793Z,98.21
2017-03-28T04:26:54.328Z,98.37
2017-03-28T04:27:54.863Z,98.31
2017-03-28T04:28:55.398Z,98.26
2017-03-28T04:29:55.928Z,98.12
2017-03-28T04:30:56.458Z,98.04
2017-03-28T04:31:56.991Z,97.88
2017-03-28T04:32:57.539Z,97.83
2017-03-28T04:33:58.058Z,97.96
2017-03-28T04:34:58.587Z,98.10
2017-03-28T04:35:59.122Z,98.31
2017-03-28T04:36:59.654Z,98.45
2017-03-28T04:38:00.332Z,98.64
2017-03-28T04:39:00.870Z,98.75
2017-03-28T04:40:01.551Z,98.88
2017-03-28T04:41:01.783Z,99.07
2017-03-28T04:42:02.316Z,99.10
2017-03-28T04:43:02.848Z,99.29
2017-03-28T04:44:03.390Z,99.37
2017-03-28T04:45:03.923Z,99.37
2017-03-28T04:46:04.449Z,99.34
2017-03-28T04:47:04.984Z,99.32
2017-03-28T04:48:05.519Z,99.23
2017-03-28T04:49:06.049Z,99.18
2017-03-28T04:50:06.593Z,99.13
2017-03-28T04:51:07.104Z,99.07
2017-03-28T04:52:07.790Z,98.96
2017-03-28T04:53:08.186Z,98.85
2017-03-28T04:54:08.717Z,98.83
2017-03-28T04:55:09.245Z,98.80
2017-03-28T04:56:09.772Z,98.85
2017-03-28T04:57:10.301Z,98.94
2017-03-28T04:58:10.844Z,98.96
2017-03-28T04:59:11.373Z,99.02
2017-03-28T05:00:11.901Z,99.13
2017-03-28T05:01:12.440Z,99.15
2017-03-28T05:02:12.971Z,99.13
2017-03-28T05:03:13.653Z,99.21
2017-03-28T05:04:14.039Z,99.32
2017-03-28T05:05:14.588Z,99.45
2017-03-28T05:06:15.112Z,99.62
2017-03-28T05:07:15.798Z,99.78
2017-03-28T05:08:16.185Z,99.94
2017-03-28T05:09:16.718Z,99.92
2017-03-28T05:10:17.248Z,99.96
2017-03-28T05:11:17.794Z,99.96
2017-03-28T05:12:18.457Z,99.86
2017-03-28T05:13:18.849Z,99.75
2017-03-28T05:14:19.371Z,99.62
2017-03-28T05:15:19.901Z,99.51
2017-03-28T05:16:20.431Z,99.40
2017-03-28T05:17:20.964Z,99.23
2017-03-28T05:18:21.495Z,99.10
2017-03-28T05:19:22.039Z,98.88
2017-03-28T05:20:22.593Z,98.88
2017-03-28T05:21:23.103Z,98.88
2017-03-28T05:22:23.647Z,98.88
2017-03-28T05:23:24.191Z,98.88
2017-03-28T05:24:24.741Z,98.88
2017-03-28T05:25:25.430Z,98.88
2017-03-28T05:26:25.972Z,98.88
2017-03-28T05:27:26.387Z,98.85
2017-03-28T05:28:26.900Z,98.80
2017-03-28T05:29:27.437Z,98.80
2017-03-28T05:30:27.964Z,98.94
2017-03-28T05:31:28.517Z,98.96
2017-03-28T05:32:29.055Z,99.13
2017-03-28T05:33:29.576Z,99.18
2017-03-28T05:34:30.107Z,99.34
2017-03-28T05:35:30.631Z,99.45
2017-03-28T05:36:31.168Z,99.56
2017-03-28T05:37:31.706Z,99.72
2017-03-28T05:38:32.233Z,99.72
2017-03-28T05:39:32.764Z,99.75
2017-03-28T05:40:33.296Z,99.81
2017-03-28T05:41:33.829Z,99.99
2017-03-28T05:42:34.365Z,99.99
2017-03-28T05:43:34.901Z,99.99
2017-03-28T05:44:35.433Z,99.99
2017-03-28T05:45:35.965Z,99.99
2017-03-28T05:46:36.504Z,99.99
2017-03-28T05:47:37.042Z,99.99
2017-03-28T05:48:37.577Z,99.89
2017-03-28T05:49:38.110Z,99.89
2017-03-28T05:50:38.651Z,99.94
2017-03-28T05:51:39.198Z,99.89
2017-03-28T05:52:39.716Z,99.86
2017-03-28T05:53:40.249Z,99.78
2017-03-28T05:54:40.789Z,99.64
2017-03-28T05:55:41.327Z,99.59
2017-03-28T05:56:41.847Z,99.59
2017-03-28T05:57:42.378Z,99.53
2017-03-28T05:58:42.916Z,99.37
2017-03-28T05:59:43.443Z,99.10
2017-03-28T06:00:43.974Z,98.80
2017-03-28T06:01:44.513Z,98.31
2017-03-28T06:02:45.039Z,97.64
2017-03-28T06:03:45.714Z,96.80
2017-03-28T06:04:46.096Z,96.28
2017-03-28T06:05:46.626Z,95.96
2017-03-28T06:06:47.162Z,95.34
2017-03-28T06:07:47.696Z,94.93
2017-03-28T06:08:48.229Z,94.88
2017-03-28T06:09:48.766Z,94.53
2017-03-28T06:10:49.290Z,93.72
2017-03-28T06:11:49.823Z,93.02
2017-03-28T06:12:50.356Z,92.38
2017-03-28T06:13:50.894Z,91.97
2017-03-28T06:14:51.566Z,91.97
2017-03-28T06:15:51.954Z,92.35
2017-03-28T06:16:52.486Z,92.43
2017-03-28T06:17:53.036Z,92.43
2017-03-28T06:18:53.557Z,92.32
2017-03-28T06:19:54.082Z,92.35
2017-03-28T06:20:54.618Z,92.68
2017-03-28T06:21:55.152Z,92.38
2017-03-28T06:23:56.211Z,92.59
2017-03-28T06:24:56.746Z,92.73
2017-03-28T06:25:57.290Z,92.68
2017-03-28T06:26:57.809Z,93.67
2017-03-28T06:27:58.491Z,94.42
2017-03-28T06:28:58.884Z,93.78
2017-03-28T06:29:59.427Z,93.45
2017-03-28T06:30:59.953Z,93.02
2017-03-28T06:32:00.496Z,92.86
2017-03-28T06:33:01.027Z,92.76
2017-03-28T06:34:01.559Z,93.94
2017-03-28T06:35:02.242Z,93.59
2017-03-28T06:36:02.625Z,92.84
2017-03-28T06:37:03.160Z,91.41
2017-03-28T06:38:03.699Z,91.09
2017-03-28T06:39:04.223Z,89.51
2017-03-28T06:40:04.760Z,88.52
2017-03-28T06:41:05.290Z,87.21
2017-03-28T06:42:05.825Z,87.24
2017-03-28T06:43:06.368Z,86.41
2017-03-28T06:44:07.038Z,85.91
2017-03-28T06:45:07.419Z,84.58
2017-03-28T06:46:08.703Z,83.38
2017-03-28T06:47:08.487Z,82.29
2017-03-28T06:48:09.020Z,81.82
2017-03-28T06:49:09.555Z,82.56
2017-03-28T06:50:10.090Z,81.42
2017-03-28T06:51:10.634Z,80.44
2017-03-28T06:52:11.155Z,79.52
2017-03-28T06:53:11.681Z,77.86
2017-03-28T06:54:12.217Z,77.17
2017-03-28T06:55:12.752Z,77.54
2017-03-28T06:56:13.285Z,77.33
2017-03-28T06:57:13.824Z,76.15
2017-03-28T06:58:14.357Z,78.31
2017-03-28T06:59:14.892Z,75.65
2017-03-28T07:00:15.419Z,75.15
2017-03-28T07:01:15.950Z,75.29
2017-03-28T07:02:16.630Z,74.89
2017-03-28T07:03:17.016Z,75.39
2017-03-28T07:04:17.549Z,75.62
2017-03-28T07:05:18.086Z,74.32
2017-03-28T07:06:18.615Z,75.57
2017-03-28T07:07:19.151Z,73.58
2017-03-28T07:08:19.831Z,74.40
2017-03-28T07:09:20.216Z,73.95
2017-03-28T07:10:20.759Z,72.90
2017-03-28T07:11:21.585Z,73.14
2017-03-28T07:12:21.821Z,73.06
2017-03-28T07:13:22.378Z,73.53
2017-03-28T07:14:22.894Z,71.39
2017-03-28T07:15:23.426Z,71.67
2017-03-28T07:16:24.106Z,71.13
2017-03-28T07:17:24.487Z,71.81
2017-03-28T07:18:25.034Z,70.97
2017-03-28T07:19:25.559Z,69.12
2017-03-28T07:20:26.090Z,71.31
2017-03-28T07:21:26.625Z,70.21
2017-03-28T07:22:27.162Z,69.44
2017-03-28T07:23:27.693Z,70.45
2017-03-28T07:24:28.227Z,69.70
2017-03-28T07:25:28.759Z,70.29
2017-03-28T07:26:29.465Z,69.23
2017-03-28T07:27:29.824Z,68.71
2017-03-28T07:28:30.365Z,67.88
2017-03-28T07:29:30.893Z,68.06
2017-03-28T07:30:31.427Z,66.74
2017-03-28T07:31:31.958Z,67.64
2017-03-28T07:32:32.492Z,67.88
2017-03-28T07:33:33.026Z,68.32
2017-03-28T07:34:33.707Z,68.22
2017-03-28T07:35:34.094Z,66.87
2017-03-28T07:36:34.623Z,67.57
2017-03-28T07:37:35.162Z,68.22
2017-03-28T07:38:35.693Z,69.59
2017-03-28T07:39:36.223Z,68.06
2017-03-28T07:40:36.758Z,68.06
2017-03-28T07:41:37.294Z,65.86
2017-03-28T07:42:37.829Z,67.28
2017-03-28T07:43:38.362Z,67.16
2017-03-28T07:44:38.894Z,65.55
2017-03-28T07:45:39.430Z,66.22
2017-03-28T07:46:39.960Z,65.96
2017-03-28T07:47:40.497Z,65.18
2017-03-28T07:48:41.040Z,63.85
2017-03-28T07:49:41.560Z,64.34
2017-03-28T07:50:42.097Z,62.50
2017-03-28T07:51:42.649Z,63.98
2017-03-28T07:52:43.166Z,63.30
2017-03-28T07:53:43.698Z,62.74
2017-03-28T07:54:44.245Z,62.90
2017-03-28T07:55:44.772Z,61.33
2017-03-28T07:56:45.303Z,62.87
2017-03-28T07:57:45.870Z,61.84
2017-03-28T07:58:46.369Z,60.22
2017-03-28T07:59:46.900Z,61.71
2017-03-28T08:00:47.435Z,61.35
2017-03-28T08:01:47.966Z,60.58
2017-03-28T08:02:48.503Z,60.84
2017-03-28T08:03:49.036Z,61.20
2017-03-28T08:04:49.567Z,61.25
2017-03-28T08:05:50.100Z,61.61
2017-03-28T08:06:50.641Z,61.50
2017-03-28T08:07:51.166Z,60.07
2017-03-28T08:08:51.693Z,61.06
2017-03-28T08:09:52.225Z,60.68
2017-03-28T08:10:52.769Z,59.86
2017-03-28T08:11:53.296Z,59.61
2017-03-28T08:12:53.826Z,59.99
2017-03-28T08:13:54.356Z,60.94
2017-03-28T08:14:54.888Z,60.66
2017-03-28T08:15:55.423Z,61.04
2017-03-28T08:16:55.952Z,60.63
2017-03-28T08:17:56.486Z,61.56
2017-03-28T08:18:57.203Z,61.84
2017-03-28T08:19:57.550Z,61.09
2017-03-28T08:20:58.081Z,60.84
2017-03-28T08:21:58.616Z,61.38
2017-03-28T08:22:59.162Z,60.45
2017-03-28T08:23:59.684Z,61.78
2017-03-28T08:25:00.215Z,59.43
2017-03-28T08:26:00.750Z,59.84
2017-03-28T08:27:01.288Z,60.55
2017-03-28T08:28:01.812Z,60.73
2017-03-28T08:29:02.350Z,59.84
2017-03-28T08:30:02.889Z,59.53
2017-03-28T08:31:03.413Z,59.94
2017-03-28T08:32:03.948Z,60.07
2017-03-28T08:33:04.630Z,60.20
2017-03-28T08:34:05.018Z,60.48
2017-03-28T08:35:05.558Z,60.09
2017-03-28T08:36:06.088Z,60.73
2017-03-28T08:37:06.624Z,61.02
2017-03-28T08:38:07.160Z,60.22
2017-03-28T08:39:07.713Z,58.61
2017-03-28T08:40:08.229Z,57.84
2017-03-28T08:41:08.760Z,57.69
2017-03-28T08:42:09.434Z,56.72
2017-03-28T08:43:09.832Z,55.55
2017-03-28T08:44:10.353Z,55.27
2017-03-28T08:45:10.881Z,55.17
2017-03-28T08:46:11.413Z,55.06
2017-03-28T08:47:11.950Z,53.77
2017-03-28T08:48:12.480Z,49.80
2017-03-28T08:49:13.009Z,48.06
2017-03-28T08:50:13.544Z,49.80
2017-03-28T08:51:14.074Z,49.39
2017-03-28T08:52:14.611Z,49.85
2017-03-28T08:53:15.291Z,46.35
2017-03-28T08:54:15.673Z,47.76
2017-03-28T08:55:16.210Z,47.56
2017-03-28T08:56:16.742Z,44.45
2017-03-28T08:57:17.277Z,46.30
2017-03-28T08:58:17.817Z,46.68
2017-03-28T08:59:18.336Z,48.36
2017-03-28T09:00:18.872Z,48.01
2017-03-28T09:01:19.555Z,47.00
2017-03-28T09:02:19.935Z,50.78
2017-03-28T09:03:20.469Z,47.33
2017-03-28T09:04:21.001Z,45.10
2017-03-28T09:05:21.536Z,45.05
2017-03-28T09:06:22.066Z,43.55
2017-03-28T09:07:22.599Z,44.17
2017-03-28T09:08:23.129Z,43.60
2017-03-28T09:09:23.662Z,44.47
2017-03-28T09:10:24.200Z,43.88
2017-03-28T09:11:24.725Z,45.87
2017-03-28T09:12:25.261Z,44.00
2017-03-28T09:13:25.794Z,43.67
2017-03-28T09:14:26.332Z,42.72
2017-03-28T09:15:26.867Z,41.23
2017-03-28T09:16:27.408Z,43.38
2017-03-28T09:17:27.967Z,43.55
2017-03-28T09:18:28.775Z,42.95
2017-03-28T09:19:29.021Z,40.51
2017-03-28T09:20:29.544Z,41.65
2017-03-28T09:21:30.077Z,40.93
2017-03-28T09:22:30.611Z,42.33
2017-03-28T09:23:31.151Z,42.33
2017-03-28T09:24:31.677Z,42.78
2017-03-28T09:25:32.212Z,41.45
2017-03-28T09:26:32.757Z,42.85
2017-03-28T09:27:33.275Z,41.38
2017-03-28T09:28:33.810Z,41.78
2017-03-28T09:29:34.346Z,41.18
2017-03-28T09:30:34.880Z,40.78
2017-03-28T09:31:35.404Z,40.88
2017-03-28T09:32:35.938Z,41.33
2017-03-28T09:33:36.467Z,41.26
2017-03-28T09:34:36.996Z,39.05
2017-03-28T09:35:37.535Z,38.68
2017-03-28T09:36:38.064Z,38.52
2017-03-28T09:37:38.596Z,39.52
2017-03-28T09:38:39.128Z,40.31
2017-03-28T09:39:39.658Z,39.66
2017-03-28T09:40:40.195Z,40.13
2017-03-28T09:41:40.732Z,39.76
2017-03-28T09:42:41.262Z,40.01
2017-03-28T09:43:41.795Z,39.07
2017-03-28T09:44:42.324Z,40.85
2017-03-28T09:45:42.855Z,38.13
2017-03-28T09:46:43.389Z,40.34
2017-03-28T09:47:43.922Z,39.15
2017-03-28T09:48:44.450Z,40.59
2017-03-28T09:49:44.986Z,38.30
2017-03-28T09:50:45.514Z,39.02
2017-03-28T09:51:46.054Z,39.17
2017-03-28T09:52:46.583Z,39.94
2017-03-28T09:53:47.115Z,37.58
2017-03-28T09:54:47.650Z,39.19
2017-03-28T09:55:48.178Z,38.70
2017-03-28T09:56:48.713Z,39.27
2017-03-28T09:57:49.255Z,39.64
2017-03-28T09:58:49.781Z,39.52
2017-03-28T09:59:50.320Z,37.86
2017-03-28T10:00:50.857Z,38.08
2017-03-28T10:01:51.398Z,38.50
2017-03-28T10:02:51.926Z,37.46
2017-03-28T10:03:52.457Z,38.10
2017-03-28T10:04:52.988Z,39.40
2017-03-28T10:05:53.529Z,38.92
2017-03-28T10:06:54.064Z,38.00
2017-03-28T10:07:54.583Z,36.84
2017-03-28T10:08:55.123Z,39.17
2017-03-28T10:09:55.653Z,37.61
2017-03-28T10:10:56.185Z,34.13
2017-03-28T10:11:56.716Z,35.49
2017-03-28T10:12:57.256Z,34.65
2017-03-28T10:13:57.962Z,33.87
2017-03-28T10:14:58.319Z,35.81
2017-03-28T10:15:59.000Z,34.80
2017-03-28T10:16:59.387Z,33.44
2017-03-28T10:17:59.919Z,34.95
2017-03-28T10:19:00.597Z,37.91
2017-03-28T10:20:00.987Z,34.82
2017-03-28T10:21:01.512Z,35.66
2017-03-28T10:22:02.042Z,35.21
2017-03-28T10:23:02.574Z,35.24
2017-03-28T10:24:03.112Z,36.03
2017-03-28T10:25:03.643Z,36.03
2017-03-28T10:26:04.173Z,35.90
2017-03-28T10:27:04.709Z,36.13
2017-03-28T10:28:05.237Z,34.73
2017-03-28T10:29:05.920Z,33.91
2017-03-28T10:30:06.308Z,33.76
2017-03-28T10:31:06.835Z,37.09
2017-03-28T10:32:07.363Z,33.42
2017-03-28T10:33:07.897Z,33.57
2017-03-28T10:34:08.425Z,33.84
2017-03-28T10:35:08.964Z,34.28
2017-03-28T10:36:09.494Z,34.35
2017-03-28T10:37:10.029Z,34.33
2017-03-28T10:38:10.562Z,35.76
2017-03-28T10:39:11.107Z,34.60
2017-03-28T10:40:11.641Z,34.01
2017-03-28T10:41:12.175Z,36.82
2017-03-28T10:42:12.703Z,33.18
2017-03-28T10:43:13.249Z,32.83
2017-03-28T10:44:13.775Z,32.66
2017-03-28T10:45:14.310Z,33.59
2017-03-28T10:46:14.844Z,32.19
2017-03-28T10:47:15.378Z,33.71
2017-03-28T10:48:15.909Z,33.69
2017-03-28T10:49:16.441Z,34.01
2017-03-28T10:50:16.970Z,35.36
2017-03-28T10:51:17.507Z,35.07
2017-03-28T10:52:18.040Z,32.02
2017-03-28T10:53:18.576Z,33.15
2017-03-28T10:54:19.107Z,33.66
2017-03-28T10:55:19.639Z,36.42
2017-03-28T10:56:20.170Z,35.73
2017-03-28T10:57:20.704Z,35.81
2017-03-28T10:58:21.238Z,34.33
2017-03-28T10:59:21.768Z,33.66
2017-03-28T11:00:22.306Z,33.59
2017-03-28T11:01:22.834Z,34.82
2017-03-28T11:02:23.391Z,32.71
2017-03-28T11:03:23.903Z,33.30
2017-03-28T11:04:24.437Z,32.58
2017-03-28T11:05:24.972Z,33.32
2017-03-28T11:06:25.501Z,33.54
2017-03-28T11:07:26.040Z,33.57
2017-03-28T11:08:26.578Z,33.25
2017-03-28T11:09:27.243Z,33.35
2017-03-28T11:10:27.626Z,33.62
2017-03-28T11:11:28.307Z,34.04
2017-03-28T11:12:28.699Z,33.30
2017-03-28T11:13:29.234Z,33.10
2017-03-28T11:14:29.902Z,34.18
2017-03-28T11:15:30.286Z,33.79
2017-03-28T11:16:30.818Z,32.49
2017-03-28T11:17:31.349Z,32.81
2017-03-28T11:18:31.892Z,32.81
2017-03-28T11:19:32.418Z,30.48
2017-03-28T11:20:32.962Z,31.31
2017-03-28T11:21:33.490Z,36.72
2017-03-28T11:22:34.021Z,33.91
2017-03-28T11:23:34.567Z,32.39
2017-03-28T11:24:35.094Z,33.30
2017-03-28T11:25:35.635Z,33.10
2017-03-28T11:26:36.170Z,31.12
2017-03-28T11:27:36.700Z,33.79
2017-03-28T11:28:37.235Z,33.10
2017-03-28T11:29:37.769Z,31.46
2017-03-28T11:30:38.309Z,31.12
2017-03-28T11:31:38.835Z,31.97
2017-03-28T11:32:39.514Z,30.22
2017-03-28T11:33:39.902Z,31.22
2017-03-28T11:34:40.430Z,29.34
2017-03-28T11:35:40.963Z,30.34
2017-03-28T11:36:41.496Z,31.12
2017-03-28T11:37:42.035Z,33.37
2017-03-28T11:38:42.560Z,31.70
2017-03-28T11:39:43.099Z,30.73
2017-03-28T11:40:43.628Z,30.65
2017-03-28T11:41:44.165Z,30.00
2017-03-28T11:42:44.692Z,29.87
2017-03-28T11:43:45.225Z,30.14
2017-03-28T11:44:45.758Z,33.59
2017-03-28T11:45:46.290Z,31.75
2017-03-28T11:46:46.835Z,31.02
2017-03-28T11:47:47.364Z,32.68
2017-03-28T11:48:47.892Z,29.60
2017-03-28T11:49:48.425Z,33.37
2017-03-28T11:50:49.011Z,32.22
2017-03-28T11:51:49.487Z,29.89
2017-03-28T11:52:50.019Z,29.28
2017-03-28T11:53:50.555Z,28.38
2017-03-28T11:54:51.087Z,29.32
2017-03-28T11:55:51.624Z,29.93
2017-03-28T11:56:52.160Z,29.65
2017-03-28T11:57:52.689Z,29.40
2017-03-28T11:58:53.374Z,29.12
2017-03-28T11:59:53.757Z,29.71
2017-03-28T12:00:54.290Z,30.04
2017-03-28T12:01:54.828Z,29.73
2017-03-28T12:02:55.355Z,29.31
2017-03-28T12:03:55.890Z,31.73
2017-03-28T12:04:56.429Z,29.49
2017-03-28T12:05:56.965Z,30.63
2017-03-28T12:06:57.507Z,29.81
2017-03-28T12:07:58.028Z,30.58
2017-03-28T12:08:58.707Z,30.58
2017-03-28T12:09:59.096Z,35.14
2017-03-28T12:10:59.620Z,30.75
2017-03-28T12:12:00.156Z,29.20
2017-03-28T12:13:00.693Z,29.24
2017-03-28T12:14:01.223Z,28.13
2017-03-28T12:15:02.049Z,28.10
2017-03-28T12:16:02.288Z,29.77
2017-03-28T12:17:02.826Z,28.80
2017-03-28T12:18:03.357Z,27.10
2017-03-28T12:19:03.891Z,27.52
2017-03-28T12:20:04.423Z,28.18
2017-03-28T12:21:04.946Z,27.62
2017-03-28T12:22:05.483Z,28.90
2017-03-28T12:23:06.023Z,28.56
2017-03-28T12:24:06.548Z,29.55
2017-03-28T12:25:07.080Z,27.90
2017-03-28T12:26:07.614Z,29.40
2017-03-28T12:27:08.149Z,29.18
2017-03-28T12:28:08.680Z,29.75
2017-03-28T12:29:09.211Z,29.46
2017-03-28T12:30:09.746Z,28.21
2017-03-28T12:31:10.282Z,27.83
2017-03-28T12:32:10.805Z,28.52
2017-03-28T12:33:11.349Z,29.08
2017-03-28T12:34:11.874Z,29.06
2017-03-28T12:35:12.403Z,28.27
2017-03-28T12:36:12.939Z,27.76
2017-03-28T12:37:13.472Z,28.27
2017-03-28T12:38:14.012Z,28.62
2017-03-28T12:39:14.535Z,30.75
2017-03-28T12:40:15.067Z,28.32
2017-03-28T12:41:15.603Z,27.91
2017-03-28T12:42:16.136Z,29.32
2017-03-28T12:43:16.675Z,29.02
2017-03-28T12:44:17.211Z,35.02
2017-03-28T12:45:17.896Z,29.14
2017-03-28T12:46:18.447Z,27.90
2017-03-28T12:47:18.812Z,30.02
2017-03-28T12:48:19.357Z,27.66
2017-03-28T12:49:19.884Z,29.08
2017-03-28T12:50:20.420Z,30.36
2017-03-28T12:51:20.947Z,30.87
2017-03-28T12:52:21.487Z,31.00
2017-03-28T12:53:22.023Z,30.44
2017-03-28T12:54:22.547Z,28.98
2017-03-28T12:55:23.092Z,28.19
2017-03-28T12:56:23.613Z,29.37
2017-03-28T12:57:24.290Z,29.32
2017-03-28T12:58:24.686Z,28.46
2017-03-28T12:59:25.218Z,28.84
2017-03-28T13:00:25.735Z,28.12